| time (UTC) | temp F | wind direction | speed knots | gust knots | rain 1hr in | rain 24hr in | rain mn in | humidity % | barometer mb |
| 20260506013820 | 68 | 0.0 | 0.0 | 0.00 | 0.00 | 0.00 | 61 | 1013.4 | |
| 20260506013318 | 68 | 0.0 | 0.0 | 0.00 | 0.00 | 0.00 | 61 | 1013.5 | |
| 20260506012819 | 68 | 0.0 | 0.0 | 0.00 | 0.00 | 0.00 | 59 | 1013.4 | |
| 20260506012318 | 68 | 0.0 | 0.0 | 0.00 | 0.00 | 0.00 | 58 | 1013.3 | |
| 20260506011817 | 69 | 0.0 | 0.0 | 0.00 | 0.00 | 0.00 | 57 | 1013.1 | |
| 20260506011316 | 69 | 0.0 | 0.0 | 0.00 | 0.00 | 0.00 | 57 | 1013.1 | |
| 20260506010816 | 69 | 0.0 | 0.0 | 0.00 | 0.00 | 0.00 | 56 | 1013.0 | |
| 20260506010549 | 70 | 0.0 | 0.0 | 0.00 | 0.00 | 0.00 | 55 | 1013.1 | |
| 20260506005817 | 70 | 0.0 | 0.0 | 0.00 | 0.00 | 0.00 | 54 | 1013.1 | |
| 20260506005315 | 70 | 0.0 | 0.0 | 0.00 | 0.00 | 0.00 | 54 | 1013.1 | |
| 20260506004816 | 71 | 0.0 | 0.0 | 0.00 | 0.00 | 0.00 | 54 | 1013.1 | |
| 20260506004315 | 71 | 0.0 | 0.0 | 0.00 | 0.00 | 0.00 | 53 | 1013.1 | |
| 20260506003814 | 71 | 0.0 | 0.0 | 0.00 | 0.00 | 0.00 | 53 | 1013.0 | |
| 20260506003313 | 71 | 0.0 | 0.0 | 0.00 | 0.00 | 0.00 | 51 | 1013.0 | |
| 20260506002815 | 72 | 0.0 | 0.0 | 0.00 | 0.00 | 0.00 | 51 | 1012.9 | |
| 20260506002315 | 72 | 0.0 | 0.0 | 0.00 | 0.00 | 0.00 | 51 | 1012.8 | |
| 20260506001815 | 72 | 0.0 | 0.0 | 0.00 | 0.00 | 0.00 | 49 | 1013.0 | |
| 20260506001315 | 73 | 0.0 | 0.0 | 0.00 | 0.00 | 0.00 | 49 | 1013.0 | |
| 20260506000813 | 73 | 0.0 | 0.0 | 0.00 | 0.00 | 0.00 | 47 | 1013.0 | |
| 20260506000315 | 74 | 0.0 | 0.0 | 0.00 | 0.00 | 0.00 | 47 | 1013.1 | |
| 20260506000044 | 74 | 0.0 | 0.0 | 0.00 | 0.00 | 0.00 | 47 | 1013.1 | |
| 20260505235314 | 74 | 0.0 | 0.0 | 0.00 | 0.00 | 0.00 | 46 | 1013.1 | |
| 20260505234813 | 75 | 0.0 | 0.0 | 0.00 | 0.00 | 0.00 | 45 | 1013.0 | |
| 20260505234314 | 75 | 0.0 | 0.0 | 0.00 | 0.00 | 0.00 | 45 | 1013.0 | |
| 20260505233814 | 76 | 134 | 0.0 | 0.0 | 0.00 | 0.00 | 0.00 | 43 | 1012.9 |
| 20260505233313 | 76 | 134 | 0.0 | 0.0 | 0.00 | 0.00 | 0.00 | 43 | 1013.0 |
| 20260505232814 | 76 | 134 | 0.0 | 0.0 | 0.00 | 0.00 | 0.00 | 42 | 1012.9 |
| 20260505232316 | 76 | 147 | 0.0 | 4.3 | 0.00 | 0.00 | 0.00 | 41 | 1012.8 |
| 20260505232312 | 76 | 147 | 0.0 | 1.7 | 0.00 | 0.00 | 0.00 | 41 | 1012.9 |
| 20260505231314 | 76 | 147 | 1.7 | 4.3 | 0.00 | 0.00 | 0.00 | 41 | 1012.9 |
| 20260505230813 | 76 | 192 | 0.0 | 5.2 | 0.00 | 0.00 | 0.00 | 42 | 1013.1 |
| 20260505230312 | 76 | 192 | 0.0 | 5.2 | 0.00 | 0.00 | 0.00 | 41 | 1013.1 |
| 20260505225812 | 76 | 151 | 0.0 | 5.2 | 0.00 | 0.00 | 0.00 | 40 | 1013.1 |
| 20260505225312 | 76 | 137 | 0.0 | 0.9 | 0.00 | 0.00 | 0.00 | 42 | 1013.3 |
| 20260505224813 | 76 | 137 | 0.0 | 1.7 | 0.00 | 0.00 | 0.00 | 43 | 1013.3 |
| 20260505224311 | 76 | 135 | 0.0 | 2.6 | 0.00 | 0.00 | 0.00 | 43 | 1013.3 |
| 20260505223811 | 76 | 135 | 0.9 | 2.6 | 0.00 | 0.00 | 0.00 | 40 | 1013.1 |
| 20260505223543 | 76 | 138 | 0.0 | 2.6 | 0.00 | 0.00 | 0.00 | 40 | 1013.3 |
| 20260505222812 | 76 | 138 | 0.0 | 0.9 | 0.00 | 0.00 | 0.00 | 40 | 1013.4 |
| 20260505222312 | 77 | 192 | 0.0 | 0.9 | 0.00 | 0.00 | 0.00 | 40 | 1013.4 |
| 20260505221811 | 77 | 192 | 0.0 | 4.3 | 0.00 | 0.00 | 0.00 | 40 | 1013.3 |
| 20260505221311 | 77 | 133 | 0.9 | 8.7 | 0.00 | 0.00 | 0.00 | 40 | 1012.9 |
| 20260505220811 | 77 | 123 | 0.9 | 11.3 | 0.00 | 0.00 | 0.00 | 39 | 1012.9 |
| 20260505220310 | 77 | 192 | 0.0 | 11.3 | 0.00 | 0.00 | 0.00 | 37 | 1013.0 |
| 20260505215811 | 77 | 144 | 1.7 | 8.7 | 0.00 | 0.00 | 0.00 | 38 | 1013.0 |
| 20260505215311 | 77 | 178 | 0.0 | 9.6 | 0.00 | 0.00 | 0.00 | 38 | 1013.0 |
| 20260505214810 | 77 | 152 | 0.0 | 9.6 | 0.00 | 0.00 | 0.00 | 38 | 1013.1 |
| 20260505214311 | 77 | 175 | 0.9 | 9.6 | 0.00 | 0.00 | 0.00 | 37 | 1013.3 |
| 20260505213811 | 78 | 183 | 0.9 | 9.6 | 0.00 | 0.00 | 0.00 | 37 | 1013.4 |
| 20260505213310 | 77 | 175 | 0.0 | 7.8 | 0.00 | 0.00 | 0.00 | 38 | 1013.3 |
| 20260505212811 | 77 | 217 | 0.0 | 6.1 | 0.00 | 0.00 | 0.00 | 37 | 1013.3 |
| 20260505212311 | 78 | 161 | 0.0 | 12.2 | 0.00 | 0.00 | 0.00 | 37 | 1013.3 |
| 20260505211810 | 78 | 165 | 1.7 | 12.2 | 0.00 | 0.00 | 0.00 | 37 | 1013.3 |
| 20260505211310 | 78 | 188 | 0.9 | 11.3 | 0.00 | 0.00 | 0.00 | 37 | 1013.3 |
| 20260505210809 | 78 | 165 | 3.5 | 13.0 | 0.00 | 0.00 | 0.00 | 37 | 1013.3 |
| 20260505210543 | 78 | 121 | 5.2 | 13.0 | 0.00 | 0.00 | 0.00 | 35 | 1013.4 |
| 20260505205810 | 78 | 192 | 0.9 | 4.3 | 0.00 | 0.00 | 0.00 | 38 | 1013.5 |
| 20260505205310 | 78 | 223 | 0.0 | 4.3 | 0.00 | 0.00 | 0.00 | 38 | 1013.5 |
| 20260505204808 | 78 | 216 | 0.9 | 7.8 | 0.00 | 0.00 | 0.00 | 37 | 1013.4 |
| 20260505204309 | 78 | 247 | 0.0 | 7.8 | 0.00 | 0.00 | 0.00 | 36 | 1013.5 |
| 20260505203808 | 78 | 144 | 0.9 | 12.2 | 0.00 | 0.00 | 0.00 | 34 | 1013.5 |
| 20260505203310 | 79 | 279 | 1.7 | 12.2 | 0.00 | 0.00 | 0.00 | 36 | 1013.5 |
| 20260505202809 | 79 | 226 | 1.7 | 7.8 | 0.00 | 0.00 | 0.00 | 37 | 1013.6 |
| 20260505202541 | 79 | 168 | 0.0 | 0.9 | 0.00 | 0.00 | 0.00 | 38 | 1013.7 |
| 20260505201809 | 79 | 141 | 0.0 | 9.6 | 0.00 | 0.00 | 0.00 | 38 | 1013.7 |
| 20260505201307 | 79 | 138 | 0.0 | 9.6 | 0.00 | 0.00 | 0.00 | 36 | 1013.8 |
| 20260505200808 | 80 | 200 | 0.0 | 0.0 | 0.00 | 0.00 | 0.00 | 35 | 1014.0 |
| 20260505200308 | 80 | 154 | 3.5 | 11.3 | 0.00 | 0.00 | 0.00 | 39 | 1013.9 |
| 20260505195807 | 79 | 154 | 3.5 | 11.3 | 0.00 | 0.00 | 0.00 | 37 | 1014.0 |
| 20260505195538 | 79 | 165 | 1.7 | 10.4 | 0.00 | 0.00 | 0.00 | 38 | 1014.1 |
| 20260505194808 | 78 | 131 | 1.7 | 10.4 | 0.00 | 0.00 | 0.00 | 38 | 1014.2 |
| 20260505194538 | 78 | 178 | 0.0 | 5.2 | 0.00 | 0.00 | 0.00 | 38 | 1014.4 |
| 20260505193808 | 78 | 154 | 0.0 | 5.2 | 0.00 | 0.00 | 0.00 | 37 | 1014.4 |
| 20260505193306 | 78 | 214 | 0.0 | 5.2 | 0.00 | 0.00 | 0.00 | 36 | 1014.5 |
| 20260505192808 | 78 | 157 | 0.9 | 8.7 | 0.00 | 0.00 | 0.00 | 37 | 1014.5 |
| 20260505192307 | 78 | 131 | 0.0 | 8.7 | 0.00 | 0.00 | 0.00 | 36 | 1014.4 |
| 20260505192037 | 78 | 159 | 0.0 | 6.1 | 0.00 | 0.00 | 0.00 | 39 | 1014.4 |
| 20260505191307 | 78 | 107 | 0.0 | 9.6 | 0.00 | 0.00 | 0.00 | 39 | 1014.4 |
| 20260505190807 | 78 | 140 | 1.7 | 9.6 | 0.00 | 0.00 | 0.00 | 38 | 1014.4 |
| 20260505190306 | 78 | 116 | 1.7 | 9.6 | 0.00 | 0.00 | 0.00 | 38 | 1014.5 |
| 20260505185807 | 78 | 118 | 0.9 | 6.1 | 0.00 | 0.00 | 0.00 | 39 | 1014.4 |
| 20260505185307 | 78 | 128 | 0.0 | 7.8 | 0.00 | 0.00 | 0.00 | 38 | 1014.5 |
| 20260505185037 | 78 | 123 | 2.6 | 12.2 | 0.00 | 0.00 | 0.00 | 36 | 1014.6 |
| 20260505184536 | 79 | 128 | 2.6 | 13.9 | 0.00 | 0.00 | 0.00 | 35 | 1014.6 |
| 20260505183806 | 79 | 147 | 0.9 | 13.9 | 0.00 | 0.00 | 0.00 | 37 | 1014.6 |
| 20260505183536 | 80 | 117 | 2.6 | 9.6 | 0.00 | 0.00 | 0.00 | 36 | 1014.8 |
| 20260505182806 | 80 | 125 | 0.0 | 9.6 | 0.00 | 0.00 | 0.00 | 35 | 1014.7 |
| 20260505182306 | 80 | 162 | 0.0 | 7.8 | 0.00 | 0.00 | 0.00 | 36 | 1014.9 |
| 20260505181804 | 80 | 245 | 0.9 | 7.8 | 0.00 | 0.00 | 0.00 | 38 | 1015.0 |
| 20260505181305 | 80 | 180 | 0.0 | 8.7 | 0.00 | 0.00 | 0.00 | 40 | 1015.0 |
| 20260505180804 | 80 | 148 | 0.9 | 8.7 | 0.00 | 0.00 | 0.00 | 36 | 1015.2 |
| 20260505180304 | 79 | 244 | 0.0 | 8.7 | 0.00 | 0.00 | 0.00 | 37 | 1015.2 |
| 20260505175806 | 79 | 290 | 0.9 | 9.6 | 0.00 | 0.00 | 0.00 | 39 | 1015.3 |
| 20260505175305 | 79 | 97 | 0.9 | 12.2 | 0.00 | 0.00 | 0.00 | 39 | 1015.4 |
| 20260505174804 | 80 | 134 | 3.5 | 12.2 | 0.00 | 0.00 | 0.00 | 37 | 1015.4 |
| 20260505174304 | 80 | 159 | 0.0 | 7.8 | 0.00 | 0.00 | 0.00 | 38 | 1015.5 |
| 20260505173804 | 81 | 161 | 2.6 | 8.7 | 0.00 | 0.00 | 0.00 | 39 | 1015.5 |
| 20260505173304 | 80 | 237 | 2.6 | 8.7 | 0.00 | 0.00 | 0.00 | 38 | 1015.5 |
| 20260505172804 | 80 | 141 | 0.9 | 4.3 | 0.00 | 0.00 | 0.00 | 40 | 1015.6 |
| 20260505172534 | 79 | 244 | 0.0 | 6.1 | 0.00 | 0.00 | 0.00 | 40 | 1015.6 |
| 20260505171804 | 79 | 209 | 1.7 | 6.1 | 0.00 | 0.00 | 0.00 | 39 | 1015.6 |
| 20260505171304 | 80 | 197 | 1.7 | 10.4 | 0.00 | 0.00 | 0.00 | 40 | 1015.6 |
| 20260505170809 | 79 | 245 | 0.9 | 7.8 | 0.00 | 0.00 | 0.00 | 38 | 1015.7 |
| 20260505170803 | 79 | 255 | 2.6 | 10.4 | 0.00 | 0.00 | 0.00 | 41 | 1015.7 |
| 20260505165804 | 79 | 220 | 0.0 | 7.8 | 0.00 | 0.00 | 0.00 | 37 | 1015.5 |
| 20260505165306 | 79 | 228 | 0.9 | 7.8 | 0.00 | 0.00 | 0.00 | 42 | 1015.6 |
| 20260505165034 | 79 | 231 | 0.9 | 9.6 | 0.00 | 0.00 | 0.00 | 42 | 1015.6 |
| 20260505164535 | 78 | 245 | 0.9 | 9.6 | 0.00 | 0.00 | 0.00 | 40 | 1015.7 |
| 20260505163803 | 78 | 171 | 1.7 | 13.9 | 0.00 | 0.00 | 0.00 | 39 | 1015.7 |
| 20260505163302 | 78 | 137 | 2.6 | 13.9 | 0.00 | 0.00 | 0.00 | 36 | 1015.9 |
| 20260505163033 | 78 | 162 | 3.5 | 12.2 | 0.00 | 0.00 | 0.00 | 40 | 1015.8 |
| 20260505162305 | 78 | 199 | 0.0 | 8.7 | 0.00 | 0.00 | 0.00 | 43 | 1015.8 |
| 20260505161803 | 78 | 202 | 1.7 | 8.7 | 0.00 | 0.00 | 0.00 | 42 | 1016.0 |
| 20260505161303 | 77 | 216 | 0.9 | 7.8 | 0.00 | 0.00 | 0.00 | 43 | 1015.9 |
| 20260505160801 | 77 | 306 | 0.0 | 5.2 | 0.00 | 0.00 | 0.00 | 41 | 1016.0 |
| 20260505160531 | 77 | 154 | 0.0 | 5.2 | 0.00 | 0.00 | 0.00 | 43 | 1016.1 |
| 20260505153033 | 74 | 133 | 0.0 | 3.5 | 0.00 | 0.00 | 0.00 | 54 | 1016.0 |
| 20260505152300 | 74 | 133 | 0.0 | 0.0 | 0.00 | 0.00 | 0.00 | 54 | 1016.0 |
| 20260505151800 | 73 | 133 | 0.0 | 0.0 | 0.00 | 0.00 | 0.00 | 54 | 1016.1 |
| 20260505151300 | 73 | 133 | 0.0 | 0.0 | 0.00 | 0.00 | 0.00 | 53 | 1016.2 |
| 20260505150800 | 72 | 133 | 0.0 | 0.0 | 0.00 | 0.00 | 0.00 | 56 | 1016.5 |
| 20260505150301 | 71 | 133 | 0.0 | 0.0 | 0.00 | 0.00 | 0.00 | 57 | 1016.3 |
| 20260505140300 | 62 | 133 | 0.0 | 0.0 | 0.00 | 0.00 | 0.00 | 72 | 1016.2 |
| 20260505130258 | 56 | 133 | 0.0 | 0.0 | 0.00 | 0.00 | 0.00 | 85 | 1015.8 |
| 20260505124758 | 54 | 140 | 0.0 | 0.0 | 0.00 | 0.00 | 0.00 | 88 | 1015.6 |
| 20260505124258 | 54 | 140 | 0.0 | 0.0 | 0.00 | 0.00 | 0.00 | 88 | 1015.7 |
| 20260505124033 | 53 | 140 | 0.0 | 0.0 | 0.00 | 0.00 | 0.00 | 88 | 1015.6 |
| 20260505123757 | 53 | 140 | 0.0 | 0.0 | 0.00 | 0.00 | 0.00 | 88 | 1015.7 |
| 20260505122756 | 52 | 140 | 0.0 | 0.0 | 0.00 | 0.00 | 0.00 | 88 | 1015.6 |
| 20260505122256 | 52 | 140 | 0.0 | 0.0 | 0.00 | 0.00 | 0.00 | 88 | 1015.6 |
| 20260505121757 | 51 | 138 | 0.0 | 0.0 | 0.00 | 0.00 | 0.00 | 88 | 1015.5 |
| 20260505121528 | 51 | 138 | 0.0 | 0.0 | 0.00 | 0.00 | 0.00 | 88 | 1015.4 |
| 20260505120757 | 50 | 0.0 | 0.0 | 0.00 | 0.00 | 0.00 | 88 | 1015.5 | |
| 20260505120257 | 50 | 0.0 | 0.0 | 0.00 | 0.00 | 0.00 | 88 | 1015.6 | |
| 20260505115756 | 49 | 0.0 | 0.0 | 0.00 | 0.00 | 0.00 | 88 | 1015.5 | |
| 20260505115526 | 49 | 0.0 | 0.0 | 0.00 | 0.00 | 0.00 | 88 | 1015.4 | |
| 20260505115028 | 49 | 0.0 | 0.0 | 0.00 | 0.00 | 0.00 | 88 | 1015.2 | |
| 20260505114257 | 48 | 0.0 | 0.0 | 0.00 | 0.00 | 0.00 | 88 | 1015.2 | |
| 20260505113755 | 48 | 0.0 | 0.0 | 0.00 | 0.00 | 0.00 | 88 | 1015.2 | |
| 20260505113300 | 48 | 0.0 | 0.0 | 0.00 | 0.00 | 0.00 | 88 | 1015.1 | |
| 20260505113256 | 48 | 0.0 | 0.0 | 0.00 | 0.00 | 0.00 | 88 | 1015.1 | |
| 20260505112255 | 48 | 0.0 | 0.0 | 0.00 | 0.00 | 0.00 | 88 | 1015.0 | |
| 20260505111756 | 48 | 0.0 | 0.0 | 0.00 | 0.00 | 0.00 | 88 | 1015.0 | |
| 20260505111256 | 47 | 0.0 | 0.0 | 0.00 | 0.00 | 0.00 | 88 | 1014.8 | |
| 20260505110755 | 47 | 0.0 | 0.0 | 0.00 | 0.00 | 0.00 | 88 | 1014.8 | |
| 20260505110254 | 47 | 0.0 | 0.0 | 0.00 | 0.00 | 0.00 | 88 | 1014.8 | |
| 20260505101754 | 48 | 0.0 | 0.0 | 0.00 | 0.00 | 0.00 | 88 | 1014.5 | |
| 20260505101253 | 48 | 0.0 | 0.0 | 0.00 | 0.00 | 0.00 | 88 | 1014.5 | |
| 20260505100753 | 48 | 0.0 | 0.0 | 0.00 | 0.00 | 0.00 | 88 | 1014.7 | |
| 20260505100254 | 48 | 0.0 | 0.0 | 0.00 | 0.00 | 0.00 | 88 | 1014.7 | |
| 20260505095753 | 48 | 0.0 | 0.0 | 0.00 | 0.00 | 0.00 | 88 | 1014.8 | |
| 20260505095253 | 48 | 0.0 | 0.0 | 0.00 | 0.00 | 0.00 | 88 | 1014.6 | |
| 20260505094753 | 48 | 0.0 | 0.0 | 0.00 | 0.00 | 0.00 | 88 | 1014.6 | |
| 20260505094253 | 48 | 0.0 | 0.0 | 0.00 | 0.00 | 0.00 | 88 | 1014.8 | |
| 20260505093754 | 49 | 0.0 | 0.0 | 0.00 | 0.00 | 0.00 | 88 | 1014.5 | |
| 20260505093252 | 49 | 0.0 | 0.0 | 0.00 | 0.00 | 0.00 | 88 | 1014.7 | |
| 20260505092753 | 49 | 0.0 | 0.0 | 0.00 | 0.00 | 0.00 | 88 | 1014.6 | |
| 20260505092252 | 49 | 0.0 | 0.0 | 0.00 | 0.00 | 0.00 | 88 | 1014.7 | |
| 20260505091752 | 49 | 0.0 | 0.0 | 0.00 | 0.00 | 0.00 | 88 | 1014.6 | |
| 20260505091523 | 49 | 0.0 | 0.0 | 0.00 | 0.00 | 0.00 | 88 | 1014.6 | |
| 20260505090751 | 49 | 0.0 | 0.0 | 0.00 | 0.00 | 0.00 | 88 | 1014.7 | |
| 20260505090252 | 49 | 0.0 | 0.0 | 0.00 | 0.00 | 0.00 | 88 | 1014.8 | |
| 20260505085751 | 49 | 0.0 | 0.0 | 0.00 | 0.00 | 0.00 | 88 | 1014.9 | |
| 20260505085250 | 49 | 0.0 | 0.0 | 0.00 | 0.00 | 0.00 | 88 | 1014.9 | |
| 20260505084751 | 49 | 0.0 | 0.0 | 0.00 | 0.00 | 0.00 | 88 | 1014.9 | |
| 20260505084251 | 49 | 0.0 | 0.0 | 0.00 | 0.00 | 0.00 | 88 | 1014.9 | |
| 20260505083751 | 49 | 0.0 | 0.0 | 0.00 | 0.00 | 0.00 | 88 | 1014.9 | |
| 20260505083251 | 49 | 0.0 | 0.0 | 0.00 | 0.00 | 0.00 | 88 | 1014.8 | |
| 20260505082750 | 49 | 0.0 | 0.0 | 0.00 | 0.00 | 0.00 | 88 | 1014.8 | |
| 20260505082250 | 49 | 0.0 | 0.0 | 0.00 | 0.00 | 0.00 | 88 | 1014.8 | |
| 20260505082021 | 50 | 0.0 | 0.0 | 0.00 | 0.00 | 0.00 | 88 | 1014.9 | |
| 20260505081250 | 50 | 0.0 | 0.0 | 0.00 | 0.00 | 0.00 | 87 | 1014.9 | |
| 20260505080750 | 50 | 0.0 | 0.0 | 0.00 | 0.00 | 0.00 | 87 | 1014.8 | |
| 20260505080249 | 50 | 0.0 | 0.0 | 0.00 | 0.00 | 0.00 | 87 | 1014.8 | |
| 20260505075749 | 50 | 0.0 | 0.0 | 0.00 | 0.00 | 0.00 | 87 | 1014.8 | |
| 20260505075249 | 50 | 0.0 | 0.0 | 0.00 | 0.00 | 0.00 | 87 | 1014.8 | |
| 20260505075020 | 50 | 0.0 | 0.0 | 0.00 | 0.00 | 0.00 | 87 | 1014.7 | |
| 20260505074249 | 50 | 0.0 | 0.0 | 0.00 | 0.00 | 0.00 | 87 | 1014.8 | |
| 20260505073748 | 50 | 0.0 | 0.0 | 0.00 | 0.00 | 0.00 | 87 | 1014.8 | |
| 20260505073247 | 50 | 0.0 | 0.0 | 0.00 | 0.00 | 0.00 | 87 | 1014.8 | |
| 20260505073019 | 51 | 0.0 | 0.0 | 0.00 | 0.00 | 0.00 | 87 | 1014.9 | |
| 20260505072247 | 51 | 0.0 | 0.0 | 0.00 | 0.00 | 0.00 | 87 | 1014.8 | |
| 20260505071747 | 51 | 0.0 | 0.0 | 0.00 | 0.00 | 0.00 | 86 | 1014.9 | |
| 20260505071517 | 51 | 0.0 | 0.0 | 0.00 | 0.00 | 0.00 | 86 | 1014.9 | |
| 20260505070746 | 51 | 0.0 | 0.0 | 0.00 | 0.00 | 0.00 | 86 | 1014.9 | |
| 20260505070246 | 51 | 0.0 | 0.0 | 0.00 | 0.00 | 0.00 | 86 | 1014.9 | |
| 20260505065745 | 51 | 0.0 | 0.0 | 0.00 | 0.00 | 0.00 | 86 | 1014.8 | |
| 20260505065516 | 51 | 0.0 | 0.0 | 0.00 | 0.00 | 0.00 | 86 | 1014.8 | |
| 20260505064745 | 51 | 0.0 | 0.0 | 0.00 | 0.00 | 0.00 | 86 | 1014.8 | |
| 20260505064246 | 51 | 0.0 | 0.0 | 0.00 | 0.00 | 0.00 | 86 | 1014.9 | |
| 20260505063746 | 51 | 0.0 | 0.0 | 0.00 | 0.00 | 0.00 | 86 | 1014.9 | |
| 20260505063245 | 52 | 0.0 | 0.0 | 0.00 | 0.00 | 0.00 | 85 | 1014.9 | |
| 20260505063020 | 52 | 0.0 | 0.0 | 0.00 | 0.00 | 0.00 | 85 | 1014.9 | |
| 20260505062744 | 52 | 0.0 | 0.0 | 0.00 | 0.00 | 0.00 | 85 | 1015.0 | |
| 20260505061744 | 52 | 0.0 | 0.0 | 0.00 | 0.00 | 0.00 | 85 | 1015.0 | |
| 20260505061245 | 52 | 0.0 | 0.0 | 0.00 | 0.00 | 0.00 | 85 | 1015.0 | |
| 20260505060745 | 52 | 0.0 | 0.0 | 0.00 | 0.00 | 0.00 | 84 | 1015.0 | |
| 20260505060517 | 52 | 0.0 | 0.0 | 0.00 | 0.00 | 0.00 | 84 | 1015.1 | |
| 20260505055744 | 53 | 0.0 | 0.0 | 0.00 | 0.00 | 0.00 | 84 | 1015.0 | |
| 20260505055245 | 53 | 0.0 | 0.0 | 0.00 | 0.00 | 0.00 | 84 | 1015.1 | |
| 20260505054744 | 53 | 0.0 | 0.0 | 0.00 | 0.00 | 0.00 | 83 | 1015.0 | |
| 20260505054245 | 53 | 0.0 | 0.0 | 0.00 | 0.00 | 0.00 | 83 | 1015.1 | |
| 20260505053743 | 53 | 0.0 | 0.0 | 0.00 | 0.00 | 0.00 | 83 | 1015.1 | |
| 20260505053244 | 53 | 0.0 | 0.0 | 0.00 | 0.00 | 0.00 | 83 | 1015.1 | |
| 20260505052744 | 53 | 0.0 | 0.0 | 0.00 | 0.00 | 0.00 | 83 | 1015.0 | |
| 20260505052244 | 53 | 0.0 | 0.0 | 0.00 | 0.00 | 0.00 | 82 | 1015.1 | |
| 20260505051743 | 54 | 0.0 | 0.0 | 0.00 | 0.00 | 0.00 | 82 | 1015.0 | |
| 20260505051243 | 54 | 0.0 | 0.0 | 0.00 | 0.00 | 0.00 | 81 | 1015.1 | |
| 20260505050742 | 54 | 0.0 | 0.0 | 0.00 | 0.00 | 0.00 | 81 | 1015.0 | |
| 20260505050242 | 54 | 0.0 | 0.0 | 0.00 | 0.00 | 0.00 | 81 | 1015.0 | |
| 20260505041741 | 56 | 0.0 | 0.0 | 0.00 | 0.00 | 0.00 | 78 | 1015.0 | |
| 20260505041242 | 56 | 0.0 | 0.0 | 0.00 | 0.00 | 0.00 | 78 | 1014.9 | |
| 20260505040741 | 56 | 0.0 | 0.0 | 0.00 | 0.00 | 0.00 | 77 | 1015.0 | |
| 20260505040241 | 56 | 0.0 | 0.0 | 0.00 | 0.00 | 0.00 | 76 | 1015.0 | |
| 20260505035745 | 56 | 0.0 | 0.0 | 0.00 | 0.00 | 0.00 | 76 | 1015.1 | |
| 20260505035741 | 56 | 0.0 | 0.0 | 0.00 | 0.00 | 0.00 | 76 | 1015.0 | |
| 20260505034741 | 57 | 0.0 | 0.0 | 0.00 | 0.00 | 0.00 | 76 | 1015.1 | |
| 20260505034512 | 57 | 0.0 | 0.0 | 0.00 | 0.00 | 0.00 | 75 | 1015.0 | |
| 20260505033740 | 57 | 0.0 | 0.0 | 0.00 | 0.00 | 0.00 | 75 | 1015.0 | |
| 20260505033240 | 57 | 0.0 | 0.0 | 0.00 | 0.00 | 0.00 | 74 | 1015.0 | |
| 20260505032741 | 58 | 0.0 | 0.0 | 0.00 | 0.00 | 0.00 | 74 | 1015.0 | |
| 20260505032240 | 58 | 0.0 | 0.0 | 0.00 | 0.00 | 0.00 | 74 | 1015.1 | |
| 20260505031740 | 58 | 0.0 | 0.0 | 0.00 | 0.00 | 0.00 | 74 | 1015.1 | |
| 20260505031240 | 58 | 0.0 | 0.0 | 0.00 | 0.00 | 0.00 | 73 | 1015.1 | |
| 20260505030739 | 58 | 0.0 | 0.0 | 0.00 | 0.00 | 0.00 | 73 | 1015.0 | |
| 20260505030239 | 59 | 0.0 | 0.0 | 0.00 | 0.00 | 0.00 | 72 | 1015.1 | |
| 20260505025739 | 59 | 0.0 | 0.0 | 0.00 | 0.00 | 0.00 | 71 | 1015.0 | |
| 20260505025239 | 59 | 0.0 | 0.0 | 0.00 | 0.00 | 0.00 | 71 | 1015.1 | |
| 20260505024739 | 59 | 0.0 | 0.0 | 0.00 | 0.00 | 0.00 | 70 | 1015.1 | |
| 20260505024240 | 60 | 0.0 | 0.0 | 0.00 | 0.00 | 0.00 | 70 | 1015.1 | |
| 20260505023738 | 60 | 0.0 | 0.0 | 0.00 | 0.00 | 0.00 | 69 | 1015.1 | |
| 20260505023239 | 60 | 0.0 | 0.0 | 0.00 | 0.00 | 0.00 | 68 | 1015.1 | |
| 20260505022739 | 61 | 0.0 | 0.0 | 0.00 | 0.00 | 0.00 | 67 | 1015.0 | |
| 20260505022237 | 61 | 0.0 | 0.0 | 0.00 | 0.00 | 0.00 | 67 | 1015.0 | |
| 20260505021738 | 61 | 0.0 | 0.0 | 0.00 | 0.00 | 0.00 | 66 | 1015.0 | |
| 20260505021238 | 62 | 0.0 | 0.0 | 0.00 | 0.00 | 0.00 | 65 | 1015.0 | |
| 20260505020738 | 62 | 0.0 | 0.0 | 0.00 | 0.00 | 0.00 | 64 | 1014.9 | |
| 20260505020238 | 62 | 0.0 | 0.0 | 0.00 | 0.00 | 0.00 | 63 | 1014.9 | |
| 20260505015738 | 62 | 0.0 | 0.0 | 0.00 | 0.00 | 0.00 | 62 | 1014.7 | |
| 20260505015238 | 63 | 0.0 | 0.0 | 0.00 | 0.00 | 0.00 | 61 | 1014.7 | |
| 20260505014738 | 63 | 0.0 | 0.0 | 0.00 | 0.00 | 0.00 | 60 | 1014.8 | |
| 20260505014238 | 64 | 0.0 | 0.0 | 0.00 | 0.00 | 0.00 | 60 | 1014.8 |